createdAt,value
2023-02-08T00:03:16.169Z,7.43
2023-02-08T00:08:17.771Z,5.75
2023-02-08T00:13:20.480Z,6.25
2023-02-08T00:18:22.625Z,7.65
2023-02-08T00:23:25.170Z,8.10
2023-02-08T00:28:26.916Z,7.20
2023-02-08T00:33:28.475Z,7.05
2023-02-08T00:38:30.463Z,7.68
2023-02-08T00:43:32.253Z,8.55
2023-02-08T00:48:33.940Z,9.10
2023-02-08T00:53:38.141Z,9.02
2023-02-08T00:58:40.417Z,9.02
2023-02-08T01:03:43.124Z,9.00
2023-02-08T01:08:44.766Z,8.30
2023-02-08T01:13:46.523Z,8.23
2023-02-08T01:18:50.260Z,7.93
2023-02-08T01:23:52.145Z,7.93
2023-02-08T01:28:55.054Z,7.85
2023-02-08T01:33:59.010Z,8.90
2023-02-08T01:39:01.302Z,8.77
2023-02-08T01:44:09.026Z,8.57
2023-02-08T01:49:19.495Z,9.00
2023-02-08T01:54:25.932Z,8.95
2023-02-08T01:59:40.756Z,9.25
2023-02-08T02:04:43.963Z,9.43
2023-02-08T02:10:08.758Z,9.00
2023-02-08T02:15:11.261Z,9.43
2023-02-08T02:20:22.697Z,9.85
2023-02-08T02:25:24.213Z,10.25
2023-02-08T02:30:47.486Z,10.27
2023-02-08T02:35:56.972Z,10.65
2023-02-08T02:41:19.690Z,9.85
2023-02-08T02:46:31.987Z,9.27
2023-02-08T02:52:01.824Z,10.23
2023-02-08T02:57:07.342Z,9.43
2023-02-08T03:02:10.328Z,8.98
2023-02-08T03:07:31.123Z,9.32
2023-02-08T03:12:35.281Z,10.27
2023-02-08T03:17:58.148Z,9.40
2023-02-08T03:23:08.283Z,9.95
2023-02-08T03:28:32.529Z,8.77
2023-02-08T03:33:42.791Z,9.82
2023-02-08T03:38:47.965Z,10.73
2023-02-08T03:44:00.671Z,11.18
2023-02-08T03:49:19.710Z,10.73
2023-02-08T03:54:26.370Z,10.55
2023-02-08T03:59:31.810Z,10.30
2023-02-08T04:04:36.901Z,9.18
2023-02-08T04:09:38.990Z,10.95
2023-02-08T04:14:40.758Z,10.40
2023-02-08T04:19:42.348Z,9.60
2023-02-08T04:24:43.916Z,8.38
2023-02-08T04:29:45.481Z,9.80
2023-02-08T04:34:46.997Z,8.45
2023-02-08T04:39:48.612Z,10.02
2023-02-08T04:44:50.183Z,9.00
2023-02-08T04:49:51.711Z,9.85
2023-02-08T04:54:56.009Z,9.40
2023-02-08T05:00:00.070Z,10.00
2023-02-08T05:05:02.011Z,10.52
2023-02-08T05:10:05.080Z,10.43
2023-02-08T05:15:06.851Z,11.18
2023-02-08T05:20:09.320Z,10.90
2023-02-08T05:25:10.921Z,10.60
2023-02-08T05:30:12.909Z,11.02
2023-02-08T05:35:14.535Z,9.73
2023-02-08T05:40:16.239Z,11.55
2023-02-08T05:45:17.816Z,10.52
2023-02-08T05:50:19.438Z,9.77
2023-02-08T05:55:25.383Z,10.68
2023-02-08T06:00:27.380Z,9.18
2023-02-08T06:05:29.050Z,9.05
2023-02-08T06:10:30.621Z,8.93
2023-02-08T06:15:32.218Z,8.93
2023-02-08T06:20:33.742Z,8.55
2023-02-08T06:25:35.418Z,8.50
2023-02-08T06:30:38.623Z,8.75
2023-02-08T06:35:40.317Z,8.93
2023-02-08T06:40:42.372Z,9.02
2023-02-08T06:45:46.176Z,8.57
2023-02-08T06:50:47.804Z,8.73
2023-02-08T06:55:50.078Z,7.38
2023-02-08T07:00:51.734Z,8.00
2023-02-08T07:06:04.491Z,8.38
2023-02-08T07:11:11.769Z,8.45
2023-02-08T07:16:13.359Z,8.18
2023-02-08T07:21:15.145Z,7.30
2023-02-08T07:26:16.678Z,7.82
2023-02-08T07:31:18.321Z,7.80
2023-02-08T07:36:19.844Z,8.50
2023-02-08T07:41:21.448Z,7.93
2023-02-08T07:46:23.308Z,6.85
2023-02-08T07:51:25.002Z,8.20
2023-02-08T07:56:26.707Z,7.68
2023-02-08T08:01:28.351Z,7.07
2023-02-08T08:06:29.930Z,7.72
2023-02-08T08:11:32.136Z,7.63
2023-02-08T08:16:33.727Z,11.68
2023-02-08T08:21:35.245Z,9.80
2023-02-08T08:26:36.950Z,8.23
2023-02-08T08:31:38.499Z,9.35
2023-02-08T08:36:40.207Z,12.55
2023-02-08T08:41:41.735Z,6.50
2023-02-08T08:46:43.360Z,6.95
2023-02-08T08:51:47.140Z,7.18
2023-02-08T08:56:48.664Z,6.32
2023-02-08T09:01:50.314Z,6.60
2023-02-08T09:06:53.525Z,6.45
2023-02-08T09:11:55.077Z,7.65
2023-02-08T09:16:56.682Z,5.88
2023-02-08T09:21:58.208Z,5.82
2023-02-08T09:26:59.869Z,5.95
2023-02-08T09:32:01.567Z,9.05
2023-02-08T09:37:03.200Z,10.30
2023-02-08T09:42:39.441Z,9.48
2023-02-08T09:48:00.253Z,8.50
2023-02-08T09:53:30.654Z,5.75
2023-02-08T09:58:41.295Z,8.55
2023-02-08T10:03:44.920Z,5.93
2023-02-08T10:08:49.754Z,6.72
2023-02-08T10:13:57.112Z,5.13
2023-02-08T10:19:22.929Z,7.18
2023-02-08T10:24:47.356Z,5.15
2023-02-08T10:29:58.014Z,8.32
2023-02-08T10:35:06.455Z,9.25
2023-02-08T10:40:26.744Z,5.10
2023-02-08T10:45:39.834Z,4.72
2023-02-08T10:50:44.189Z,4.82
2023-02-08T10:55:48.000Z,5.97
2023-02-08T11:00:50.051Z,7.65
2023-02-08T11:05:52.641Z,6.80
2023-02-08T11:11:08.825Z,4.60
2023-02-08T11:16:22.268Z,4.73
2023-02-08T11:21:30.683Z,4.90
2023-02-08T11:26:38.460Z,5.57
2023-02-08T11:31:55.841Z,4.53
2023-02-08T11:36:59.172Z,5.72
2023-02-08T11:42:02.255Z,4.90
2023-02-08T11:47:08.397Z,5.05
2023-02-08T11:52:22.165Z,4.78
2023-02-08T11:57:26.369Z,5.30
2023-02-08T12:02:39.879Z,4.03
2023-02-08T12:08:04.176Z,4.10
2023-02-08T12:13:35.772Z,4.30
2023-02-08T12:19:16.407Z,3.20
2023-02-08T12:24:45.747Z,3.42
2023-02-08T12:30:06.034Z,3.20
2023-02-08T12:35:13.433Z,3.63
2023-02-08T12:40:42.320Z,2.67
2023-02-08T12:46:03.242Z,2.78
2023-02-08T12:51:16.949Z,3.25
2023-02-08T12:56:23.783Z,2.92
2023-02-08T13:01:41.684Z,2.90
2023-02-08T13:06:47.175Z,2.83
2023-02-08T13:11:51.408Z,2.35
2023-02-08T13:16:58.277Z,4.88
2023-02-08T13:22:00.603Z,2.38
2023-02-08T13:27:02.525Z,2.55
2023-02-08T13:32:14.569Z,2.10
2023-02-08T13:37:25.765Z,1.73
2023-02-08T13:42:39.778Z,2.17
2023-02-08T13:47:48.647Z,2.15
2023-02-08T13:52:51.190Z,1.90
2023-02-08T13:57:55.191Z,1.50
2023-02-08T14:03:15.201Z,1.50
2023-02-08T14:08:43.079Z,1.20
2023-02-08T14:14:12.910Z,1.10
2023-02-08T14:19:17.484Z,1.58
2023-02-08T14:24:27.014Z,1.17
2023-02-08T14:29:28.636Z,1.40
2023-02-08T14:34:37.777Z,1.48
2023-02-08T14:39:39.654Z,1.60
2023-02-08T14:44:41.208Z,1.35
2023-02-08T14:49:44.762Z,1.40
2023-02-08T14:55:07.876Z,1.83
2023-02-08T15:00:26.892Z,1.55
2023-02-08T15:05:35.694Z,1.50
2023-02-08T15:10:42.259Z,1.67
2023-02-08T15:20:53.744Z,1.42
2023-02-08T15:26:06.301Z,1.75
2023-02-08T15:31:14.689Z,1.77
2023-02-08T15:36:29.486Z,1.48
2023-02-08T15:41:33.867Z,1.20
2023-02-08T15:46:37.099Z,1.73
2023-02-08T15:51:38.722Z,1.73
2023-02-08T15:56:42.386Z,1.95
2023-02-08T16:01:47.829Z,2.00
2023-02-08T16:06:53.207Z,1.90
2023-02-08T16:12:00.333Z,2.13
2023-02-08T16:17:02.004Z,2.45
2023-02-08T16:22:12.947Z,2.30
2023-02-08T16:27:24.370Z,2.45
2023-02-08T16:32:33.426Z,2.63
2023-02-08T16:37:35.272Z,2.90
2023-02-08T16:42:38.817Z,3.28
2023-02-08T16:47:48.365Z,2.50
2023-02-08T16:53:02.413Z,3.03
2023-02-08T16:58:04.036Z,2.67
2023-02-08T17:03:05.622Z,2.80
2023-02-08T17:08:12.692Z,3.20
2023-02-08T17:13:20.433Z,2.95
2023-02-08T17:18:22.823Z,3.08
2023-02-08T17:23:24.705Z,4.13
2023-02-08T17:28:27.172Z,3.78
2023-02-08T17:33:28.794Z,5.10
2023-02-08T17:38:30.383Z,5.05
2023-02-08T17:43:32.221Z,3.55
2023-02-08T17:48:33.722Z,3.30
2023-02-08T17:53:35.232Z,3.58
2023-02-08T17:58:36.942Z,4.60
2023-02-08T18:03:38.530Z,4.38
2023-02-08T18:08:40.659Z,4.55
2023-02-08T18:13:42.263Z,5.05
2023-02-08T18:18:44.324Z,4.88
2023-02-08T18:23:46.963Z,5.05
2023-02-08T18:28:48.584Z,4.85
2023-02-08T18:33:50.415Z,5.82
2023-02-08T18:38:53.448Z,5.30
2023-02-08T18:43:56.686Z,5.50
2023-02-08T18:48:58.260Z,5.70
2023-02-08T18:53:59.838Z,5.20
2023-02-08T18:59:04.084Z,5.40
2023-02-08T19:04:06.112Z,5.97
2023-02-08T19:09:08.620Z,5.25
2023-02-08T19:14:12.940Z,5.32
2023-02-08T19:19:14.472Z,4.50
2023-02-08T19:24:16.078Z,5.35
2023-02-08T19:29:18.908Z,6.03
2023-02-08T19:34:20.679Z,5.10
2023-02-08T19:39:25.691Z,5.93
2023-02-08T19:44:30.253Z,4.13
2023-02-08T19:49:32.257Z,5.18
2023-02-08T19:54:33.822Z,4.85
2023-02-08T19:59:35.564Z,4.65
2023-02-08T20:04:37.755Z,4.80
2023-02-08T20:09:39.336Z,5.78
2023-02-08T20:14:40.909Z,4.90
2023-02-08T20:19:42.504Z,4.88
2023-02-08T20:24:44.044Z,4.63
2023-02-08T20:29:45.619Z,4.13
2023-02-08T20:34:58.344Z,4.75
2023-02-08T20:40:00.878Z,4.93
2023-02-08T20:45:02.793Z,5.03
2023-02-08T20:50:16.849Z,4.30
2023-02-08T20:55:20.299Z,5.20
2023-02-08T21:00:24.209Z,4.68
2023-02-08T21:05:29.696Z,6.13
2023-02-08T21:10:31.252Z,5.03
2023-02-08T21:15:32.917Z,5.18
2023-02-08T21:20:37.676Z,6.32
2023-02-08T21:25:39.822Z,5.50
2023-02-08T21:30:41.460Z,17.65
2023-02-08T21:35:43.062Z,19.77
2023-02-08T21:40:44.816Z,15.50
2023-02-08T21:45:46.491Z,9.38
2023-02-08T21:50:48.044Z,6.70
2023-02-08T21:55:49.629Z,8.15
2023-02-08T22:00:51.125Z,7.47
2023-02-08T22:05:52.858Z,5.45
2023-02-08T22:10:58.516Z,6.22
2023-02-08T22:16:00.695Z,6.53
2023-02-08T22:21:04.166Z,5.80
2023-02-08T22:26:09.100Z,5.60
2023-02-08T22:31:13.149Z,5.65
2023-02-08T22:36:14.739Z,5.60
2023-02-08T22:41:17.003Z,6.25
2023-02-08T22:46:18.751Z,5.72
2023-02-08T22:51:20.535Z,5.55
2023-02-08T22:56:22.195Z,6.60
2023-02-08T23:01:23.933Z,6.25
2023-02-08T23:06:25.599Z,6.03
2023-02-08T23:11:27.758Z,6.63
2023-02-08T23:16:29.447Z,6.97
2023-02-08T23:21:31.098Z,6.10
2023-02-08T23:26:32.823Z,7.72
2023-02-08T23:31:34.596Z,6.20
2023-02-08T23:36:36.258Z,17.70
2023-02-08T23:41:37.855Z,7.90
2023-02-08T23:46:39.996Z,6.13
2023-02-08T23:51:41.582Z,5.53
2023-02-08T23:56:43.105Z,5.65
